sensor_id;sensor_type;location;lat;lon;timestamp;P1;durP1;ratioP1;P2;durP2;ratioP2
15331;SDS011;7766;51.534;6.722;2023-08-06T00:00:22;5.47;;;3.20;;
15331;SDS011;7766;51.534;6.722;2023-08-06T00:01:23;3.60;;;2.80;;
15331;SDS011;7766;51.534;6.722;2023-08-06T00:02:25;4.67;;;3.50;;
15331;SDS011;7766;51.534;6.722;2023-08-06T00:03:26;3.90;;;2.83;;
15331;SDS011;7766;51.534;6.722;2023-08-06T00:04:27;3.67;;;2.90;;
15331;SDS011;7766;51.534;6.722;2023-08-06T00:05:28;3.77;;;2.60;;
15331;SDS011;7766;51.534;6.722;2023-08-06T00:06:29;2.77;;;2.57;;
15331;SDS011;7766;51.534;6.722;2023-08-06T00:07:30;2.47;;;2.20;;
15331;SDS011;7766;51.534;6.722;2023-08-06T00:08:31;3.83;;;2.80;;
15331;SDS011;7766;51.534;6.722;2023-08-06T00:09:32;3.43;;;2.80;;
15331;SDS011;7766;51.534;6.722;2023-08-06T00:10:33;3.77;;;2.60;;
15331;SDS011;7766;51.534;6.722;2023-08-06T00:11:34;4.37;;;2.60;;
15331;SDS011;7766;51.534;6.722;2023-08-06T00:12:35;3.03;;;2.70;;
15331;SDS011;7766;51.534;6.722;2023-08-06T00:13:36;4.33;;;3.30;;
15331;SDS011;7766;51.534;6.722;2023-08-06T00:14:37;5.17;;;2.70;;
15331;SDS011;7766;51.534;6.722;2023-08-06T00:15:38;4.37;;;2.77;;
15331;SDS011;7766;51.534;6.722;2023-08-06T00:16:39;5.30;;;2.90;;
15331;SDS011;7766;51.534;6.722;2023-08-06T00:17:40;6.20;;;2.70;;
15331;SDS011;7766;51.534;6.722;2023-08-06T00:18:41;4.93;;;2.87;;
15331;SDS011;7766;51.534;6.722;2023-08-06T00:19:42;5.40;;;3.33;;
15331;SDS011;7766;51.534;6.722;2023-08-06T00:20:43;3.80;;;3.07;;
15331;SDS011;7766;51.534;6.722;2023-08-06T00:21:44;5.93;;;2.53;;
15331;SDS011;7766;51.534;6.722;2023-08-06T00:22:45;4.50;;;2.67;;
15331;SDS011;7766;51.534;6.722;2023-08-06T00:23:46;6.30;;;2.87;;
15331;SDS011;7766;51.534;6.722;2023-08-06T00:24:47;4.67;;;2.77;;
15331;SDS011;7766;51.534;6.722;2023-08-06T00:25:48;3.30;;;2.63;;
15331;SDS011;7766;51.534;6.722;2023-08-06T00:26:49;3.73;;;2.87;;
15331;SDS011;7766;51.534;6.722;2023-08-06T00:27:50;3.77;;;2.73;;
15331;SDS011;7766;51.534;6.722;2023-08-06T00:28:51;5.23;;;2.80;;
15331;SDS011;7766;51.534;6.722;2023-08-06T00:29:52;3.33;;;2.90;;
15331;SDS011;7766;51.534;6.722;2023-08-06T00:30:54;4.00;;;2.70;;
15331;SDS011;7766;51.534;6.722;2023-08-06T00:31:55;4.07;;;2.77;;
15331;SDS011;7766;51.534;6.722;2023-08-06T00:32:56;4.33;;;2.80;;
15331;SDS011;7766;51.534;6.722;2023-08-06T00:33:57;5.53;;;2.57;;
15331;SDS011;7766;51.534;6.722;2023-08-06T00:34:58;3.60;;;3.03;;
15331;SDS011;7766;51.534;6.722;2023-08-06T00:35:59;3.67;;;2.60;;
15331;SDS011;7766;51.534;6.722;2023-08-06T00:37:00;4.97;;;2.70;;
15331;SDS011;7766;51.534;6.722;2023-08-06T00:38:01;3.63;;;2.50;;
15331;SDS011;7766;51.534;6.722;2023-08-06T00:39:02;3.00;;;2.70;;
15331;SDS011;7766;51.534;6.722;2023-08-06T00:40:03;4.43;;;2.60;;
15331;SDS011;7766;51.534;6.722;2023-08-06T00:41:06;4.07;;;2.73;;
15331;SDS011;7766;51.534;6.722;2023-08-06T00:42:07;4.23;;;2.90;;
15331;SDS011;7766;51.534;6.722;2023-08-06T00:43:08;3.07;;;2.33;;
15331;SDS011;7766;51.534;6.722;2023-08-06T00:44:09;4.23;;;2.90;;
15331;SDS011;7766;51.534;6.722;2023-08-06T00:45:10;4.27;;;2.97;;
15331;SDS011;7766;51.534;6.722;2023-08-06T00:46:11;3.43;;;2.67;;
15331;SDS011;7766;51.534;6.722;2023-08-06T00:47:12;4.10;;;2.70;;
15331;SDS011;7766;51.534;6.722;2023-08-06T00:48:14;4.83;;;2.97;;
15331;SDS011;7766;51.534;6.722;2023-08-06T00:49:15;3.20;;;2.40;;
15331;SDS011;7766;51.534;6.722;2023-08-06T00:50:16;3.00;;;2.63;;
15331;SDS011;7766;51.534;6.722;2023-08-06T00:51:18;3.67;;;2.77;;
15331;SDS011;7766;51.534;6.722;2023-08-06T00:52:20;6.43;;;2.70;;
15331;SDS011;7766;51.534;6.722;2023-08-06T00:53:21;4.47;;;2.47;;
15331;SDS011;7766;51.534;6.722;2023-08-06T00:54:23;5.30;;;2.93;;
15331;SDS011;7766;51.534;6.722;2023-08-06T00:55:24;3.93;;;2.80;;
15331;SDS011;7766;51.534;6.722;2023-08-06T00:56:25;8.53;;;6.57;;
15331;SDS011;7766;51.534;6.722;2023-08-06T00:57:27;12.03;;;8.67;;
15331;SDS011;7766;51.534;6.722;2023-08-06T00:58:28;27.73;;;18.33;;
15331;SDS011;7766;51.534;6.722;2023-08-06T00:59:29;23.70;;;15.50;;
15331;SDS011;7766;51.534;6.722;2023-08-06T01:00:32;12.77;;;9.03;;
15331;SDS011;7766;51.534;6.722;2023-08-06T01:01:33;7.07;;;5.53;;
15331;SDS011;7766;51.534;6.722;2023-08-06T01:02:34;4.87;;;3.53;;
15331;SDS011;7766;51.534;6.722;2023-08-06T01:03:35;3.00;;;2.70;;
15331;SDS011;7766;51.534;6.722;2023-08-06T01:04:36;4.20;;;3.00;;
15331;SDS011;7766;51.534;6.722;2023-08-06T01:05:37;4.07;;;2.60;;
15331;SDS011;7766;51.534;6.722;2023-08-06T01:06:48;3.57;;;2.20;;
15331;SDS011;7766;51.534;6.722;2023-08-06T01:09:31;3.27;;;2.50;;
15331;SDS011;7766;51.534;6.722;2023-08-06T01:13:16;5.27;;;2.43;;
15331;SDS011;7766;51.534;6.722;2023-08-06T01:14:30;7.13;;;2.53;;
15331;SDS011;7766;51.534;6.722;2023-08-06T01:15:37;3.27;;;2.63;;
15331;SDS011;7766;51.534;6.722;2023-08-06T01:16:44;6.70;;;2.53;;
15331;SDS011;7766;51.534;6.722;2023-08-06T01:17:45;4.30;;;3.13;;
15331;SDS011;7766;51.534;6.722;2023-08-06T01:18:47;3.93;;;2.83;;
15331;SDS011;7766;51.534;6.722;2023-08-06T01:19:49;5.23;;;2.60;;
15331;SDS011;7766;51.534;6.722;2023-08-06T01:20:50;5.33;;;2.70;;
15331;SDS011;7766;51.534;6.722;2023-08-06T01:21:51;6.33;;;2.73;;
15331;SDS011;7766;51.534;6.722;2023-08-06T01:22:52;3.37;;;2.40;;
15331;SDS011;7766;51.534;6.722;2023-08-06T01:23:53;3.67;;;2.87;;
15331;SDS011;7766;51.534;6.722;2023-08-06T01:24:54;5.17;;;2.80;;
15331;SDS011;7766;51.534;6.722;2023-08-06T01:25:56;3.23;;;2.63;;
15331;SDS011;7766;51.534;6.722;2023-08-06T01:28:28;4.10;;;2.50;;
15331;SDS011;7766;51.534;6.722;2023-08-06T01:29:32;6.60;;;2.83;;
15331;SDS011;7766;51.534;6.722;2023-08-06T01:31:02;4.27;;;2.63;;
15331;SDS011;7766;51.534;6.722;2023-08-06T01:32:05;4.20;;;2.57;;
15331;SDS011;7766;51.534;6.722;2023-08-06T01:33:14;5.23;;;2.70;;
15331;SDS011;7766;51.534;6.722;2023-08-06T01:34:24;4.50;;;2.87;;
15331;SDS011;7766;51.534;6.722;2023-08-06T01:35:27;3.67;;;3.03;;
15331;SDS011;7766;51.534;6.722;2023-08-06T01:36:29;23.20;;;14.50;;
15331;SDS011;7766;51.534;6.722;2023-08-06T01:37:31;37.60;;;20.33;;
15331;SDS011;7766;51.534;6.722;2023-08-06T01:38:32;34.50;;;20.93;;
15331;SDS011;7766;51.534;6.722;2023-08-06T01:39:33;29.80;;;18.37;;
15331;SDS011;7766;51.534;6.722;2023-08-06T01:40:34;22.53;;;16.17;;
15331;SDS011;7766;51.534;6.722;2023-08-06T01:41:35;17.67;;;12.40;;
15331;SDS011;7766;51.534;6.722;2023-08-06T01:42:37;14.97;;;10.87;;
15331;SDS011;7766;51.534;6.722;2023-08-06T01:43:38;15.17;;;10.50;;
15331;SDS011;7766;51.534;6.722;2023-08-06T01:44:39;32.97;;;22.33;;
15331;SDS011;7766;51.534;6.722;2023-08-06T01:45:40;21.97;;;15.60;;
15331;SDS011;7766;51.534;6.722;2023-08-06T01:46:41;9.47;;;5.90;;
15331;SDS011;7766;51.534;6.722;2023-08-06T01:47:43;5.50;;;3.33;;
15331;SDS011;7766;51.534;6.722;2023-08-06T01:48:44;5.23;;;3.20;;
15331;SDS011;7766;51.534;6.722;2023-08-06T01:49:45;5.90;;;3.43;;
15331;SDS011;7766;51.534;6.722;2023-08-06T01:50:46;4.63;;;3.47;;
15331;SDS011;7766;51.534;6.722;2023-08-06T01:51:47;4.07;;;3.57;;
15331;SDS011;7766;51.534;6.722;2023-08-06T01:52:48;3.33;;;2.93;;
15331;SDS011;7766;51.534;6.722;2023-08-06T01:53:49;4.20;;;3.40;;
15331;SDS011;7766;51.534;6.722;2023-08-06T01:54:50;3.73;;;2.90;;
15331;SDS011;7766;51.534;6.722;2023-08-06T01:55:51;6.07;;;3.37;;
15331;SDS011;7766;51.534;6.722;2023-08-06T01:56:52;5.00;;;3.33;;
15331;SDS011;7766;51.534;6.722;2023-08-06T01:57:53;6.03;;;2.83;;
15331;SDS011;7766;51.534;6.722;2023-08-06T01:58:54;6.23;;;3.00;;
15331;SDS011;7766;51.534;6.722;2023-08-06T01:59:55;3.07;;;2.77;;
15331;SDS011;7766;51.534;6.722;2023-08-06T02:00:56;3.97;;;3.33;;
15331;SDS011;7766;51.534;6.722;2023-08-06T02:01:57;5.63;;;3.17;;
15331;SDS011;7766;51.534;6.722;2023-08-06T02:02:58;4.17;;;3.20;;
15331;SDS011;7766;51.534;6.722;2023-08-06T02:03:59;7.87;;;3.23;;
15331;SDS011;7766;51.534;6.722;2023-08-06T02:05:00;7.43;;;3.30;;
15331;SDS011;7766;51.534;6.722;2023-08-06T02:06:01;4.13;;;2.90;;
15331;SDS011;7766;51.534;6.722;2023-08-06T02:07:02;6.07;;;3.80;;
15331;SDS011;7766;51.534;6.722;2023-08-06T02:08:04;3.77;;;3.20;;
15331;SDS011;7766;51.534;6.722;2023-08-06T02:09:05;2.83;;;2.53;;
15331;SDS011;7766;51.534;6.722;2023-08-06T02:10:06;4.03;;;3.20;;
15331;SDS011;7766;51.534;6.722;2023-08-06T02:11:07;3.70;;;3.00;;
15331;SDS011;7766;51.534;6.722;2023-08-06T02:12:08;7.07;;;2.60;;
15331;SDS011;7766;51.534;6.722;2023-08-06T02:13:09;5.50;;;2.97;;
15331;SDS011;7766;51.534;6.722;2023-08-06T02:14:10;4.90;;;2.87;;
15331;SDS011;7766;51.534;6.722;2023-08-06T02:15:12;9.50;;;3.40;;
15331;SDS011;7766;51.534;6.722;2023-08-06T02:16:13;3.23;;;2.67;;
15331;SDS011;7766;51.534;6.722;2023-08-06T02:17:14;4.07;;;3.00;;
15331;SDS011;7766;51.534;6.722;2023-08-06T02:18:15;4.53;;;3.00;;
15331;SDS011;7766;51.534;6.722;2023-08-06T02:19:16;3.93;;;2.53;;
15331;SDS011;7766;51.534;6.722;2023-08-06T02:20:17;3.70;;;2.53;;
15331;SDS011;7766;51.534;6.722;2023-08-06T02:21:18;3.90;;;2.70;;
15331;SDS011;7766;51.534;6.722;2023-08-06T02:22:19;4.23;;;2.70;;
15331;SDS011;7766;51.534;6.722;2023-08-06T02:23:20;2.83;;;2.60;;
15331;SDS011;7766;51.534;6.722;2023-08-06T02:24:21;3.43;;;2.53;;
15331;SDS011;7766;51.534;6.722;2023-08-06T02:25:22;4.13;;;2.50;;
15331;SDS011;7766;51.534;6.722;2023-08-06T02:26:24;5.47;;;2.70;;
15331;SDS011;7766;51.534;6.722;2023-08-06T02:27:25;4.23;;;3.00;;
15331;SDS011;7766;51.534;6.722;2023-08-06T02:28:26;4.60;;;2.63;;
15331;SDS011;7766;51.534;6.722;2023-08-06T02:29:28;4.60;;;2.93;;
15331;SDS011;7766;51.534;6.722;2023-08-06T02:30:29;2.77;;;2.43;;
15331;SDS011;7766;51.534;6.722;2023-08-06T02:31:30;4.73;;;3.10;;
15331;SDS011;7766;51.534;6.722;2023-08-06T02:32:31;3.83;;;3.13;;
15331;SDS011;7766;51.534;6.722;2023-08-06T02:33:35;3.33;;;2.37;;
15331;SDS011;7766;51.534;6.722;2023-08-06T02:34:36;5.63;;;2.60;;
15331;SDS011;7766;51.534;6.722;2023-08-06T02:35:37;6.27;;;2.73;;
15331;SDS011;7766;51.534;6.722;2023-08-06T02:36:38;4.33;;;3.00;;
15331;SDS011;7766;51.534;6.722;2023-08-06T02:37:39;3.00;;;2.70;;
15331;SDS011;7766;51.534;6.722;2023-08-06T02:38:40;4.70;;;2.90;;
15331;SDS011;7766;51.534;6.722;2023-08-06T02:39:41;4.93;;;3.23;;
15331;SDS011;7766;51.534;6.722;2023-08-06T02:40:43;4.87;;;2.77;;
15331;SDS011;7766;51.534;6.722;2023-08-06T02:41:45;4.43;;;2.80;;
15331;SDS011;7766;51.534;6.722;2023-08-06T02:42:46;4.83;;;3.17;;
15331;SDS011;7766;51.534;6.722;2023-08-06T02:43:47;3.30;;;2.80;;
15331;SDS011;7766;51.534;6.722;2023-08-06T02:44:48;8.67;;;2.77;;
15331;SDS011;7766;51.534;6.722;2023-08-06T02:45:49;3.60;;;2.93;;
15331;SDS011;7766;51.534;6.722;2023-08-06T02:46:50;4.57;;;2.80;;
15331;SDS011;7766;51.534;6.722;2023-08-06T02:47:51;4.53;;;2.83;;
15331;SDS011;7766;51.534;6.722;2023-08-06T02:48:52;4.47;;;3.00;;
15331;SDS011;7766;51.534;6.722;2023-08-06T02:49:53;5.00;;;2.87;;
15331;SDS011;7766;51.534;6.722;2023-08-06T02:50:58;3.07;;;2.70;;
15331;SDS011;7766;51.534;6.722;2023-08-06T02:51:59;4.70;;;2.83;;
15331;SDS011;7766;51.534;6.722;2023-08-06T02:53:00;4.60;;;3.00;;
15331;SDS011;7766;51.534;6.722;2023-08-06T02:54:01;7.13;;;3.17;;
15331;SDS011;7766;51.534;6.722;2023-08-06T02:55:02;4.57;;;3.07;;
15331;SDS011;7766;51.534;6.722;2023-08-06T02:56:03;3.90;;;2.67;;
15331;SDS011;7766;51.534;6.722;2023-08-06T02:57:04;3.80;;;2.70;;
15331;SDS011;7766;51.534;6.722;2023-08-06T02:58:06;4.57;;;3.13;;
15331;SDS011;7766;51.534;6.722;2023-08-06T02:59:07;4.00;;;2.80;;
15331;SDS011;7766;51.534;6.722;2023-08-06T03:00:08;5.07;;;2.70;;
15331;SDS011;7766;51.534;6.722;2023-08-06T03:01:11;4.13;;;2.63;;
15331;SDS011;7766;51.534;6.722;2023-08-06T03:02:12;6.30;;;3.20;;
15331;SDS011;7766;51.534;6.722;2023-08-06T03:03:13;3.50;;;2.70;;
15331;SDS011;7766;51.534;6.722;2023-08-06T03:04:14;5.70;;;3.00;;
15331;SDS011;7766;51.534;6.722;2023-08-06T03:05:17;6.90;;;2.87;;
15331;SDS011;7766;51.534;6.722;2023-08-06T03:06:18;3.73;;;2.87;;
15331;SDS011;7766;51.534;6.722;2023-08-06T03:07:19;5.20;;;3.20;;
15331;SDS011;7766;51.534;6.722;2023-08-06T03:08:20;4.73;;;2.67;;
15331;SDS011;7766;51.534;6.722;2023-08-06T03:09:22;3.07;;;2.63;;
15331;SDS011;7766;51.534;6.722;2023-08-06T03:10:23;2.87;;;2.57;;
15331;SDS011;7766;51.534;6.722;2023-08-06T03:11:24;4.20;;;2.60;;
15331;SDS011;7766;51.534;6.722;2023-08-06T03:12:25;4.80;;;2.70;;
15331;SDS011;7766;51.534;6.722;2023-08-06T03:13:26;5.67;;;2.80;;
15331;SDS011;7766;51.534;6.722;2023-08-06T03:14:28;5.73;;;2.97;;
15331;SDS011;7766;51.534;6.722;2023-08-06T03:15:29;3.67;;;2.40;;
15331;SDS011;7766;51.534;6.722;2023-08-06T03:16:30;3.23;;;2.70;;
15331;SDS011;7766;51.534;6.722;2023-08-06T03:17:31;4.33;;;2.37;;
15331;SDS011;7766;51.534;6.722;2023-08-06T03:18:32;5.33;;;3.00;;
15331;SDS011;7766;51.534;6.722;2023-08-06T03:19:33;5.57;;;2.77;;
15331;SDS011;7766;51.534;6.722;2023-08-06T03:20:34;3.80;;;2.47;;
15331;SDS011;7766;51.534;6.722;2023-08-06T03:21:35;4.00;;;2.57;;
15331;SDS011;7766;51.534;6.722;2023-08-06T03:22:36;4.10;;;2.47;;
15331;SDS011;7766;51.534;6.722;2023-08-06T03:23:37;3.73;;;2.60;;
15331;SDS011;7766;51.534;6.722;2023-08-06T03:24:38;2.60;;;2.33;;
15331;SDS011;7766;51.534;6.722;2023-08-06T03:25:39;3.37;;;2.97;;
15331;SDS011;7766;51.534;6.722;2023-08-06T03:26:40;5.10;;;2.60;;
15331;SDS011;7766;51.534;6.722;2023-08-06T03:27:41;4.87;;;3.00;;
15331;SDS011;7766;51.534;6.722;2023-08-06T03:28:41;2.97;;;2.50;;
15331;SDS011;7766;51.534;6.722;2023-08-06T03:29:43;3.87;;;2.60;;
15331;SDS011;7766;51.534;6.722;2023-08-06T03:30:44;3.97;;;2.70;;
15331;SDS011;7766;51.534;6.722;2023-08-06T03:31:45;5.97;;;3.13;;
15331;SDS011;7766;51.534;6.722;2023-08-06T03:32:46;3.30;;;3.00;;
15331;SDS011;7766;51.534;6.722;2023-08-06T03:33:47;4.37;;;3.00;;
15331;SDS011;7766;51.534;6.722;2023-08-06T03:34:48;5.13;;;2.83;;
15331;SDS011;7766;51.534;6.722;2023-08-06T03:35:49;3.50;;;2.90;;
15331;SDS011;7766;51.534;6.722;2023-08-06T03:36:50;4.40;;;2.57;;
15331;SDS011;7766;51.534;6.722;2023-08-06T03:37:51;4.83;;;2.93;;
15331;SDS011;7766;51.534;6.722;2023-08-06T03:38:52;5.80;;;2.70;;
15331;SDS011;7766;51.534;6.722;2023-08-06T03:39:53;4.47;;;2.60;;
15331;SDS011;7766;51.534;6.722;2023-08-06T03:40:54;5.50;;;2.80;;
15331;SDS011;7766;51.534;6.722;2023-08-06T03:41:55;4.73;;;2.87;;
15331;SDS011;7766;51.534;6.722;2023-08-06T03:42:56;3.93;;;2.73;;
15331;SDS011;7766;51.534;6.722;2023-08-06T03:43:57;4.33;;;2.67;;
15331;SDS011;7766;51.534;6.722;2023-08-06T03:44:58;4.57;;;2.70;;
15331;SDS011;7766;51.534;6.722;2023-08-06T03:45:59;5.47;;;2.80;;
15331;SDS011;7766;51.534;6.722;2023-08-06T03:47:00;5.90;;;2.83;;
15331;SDS011;7766;51.534;6.722;2023-08-06T03:48:01;4.27;;;2.63;;
15331;SDS011;7766;51.534;6.722;2023-08-06T03:49:02;4.10;;;2.37;;
15331;SDS011;7766;51.534;6.722;2023-08-06T03:50:03;4.60;;;2.40;;
15331;SDS011;7766;51.534;6.722;2023-08-06T03:51:04;4.40;;;2.80;;
15331;SDS011;7766;51.534;6.722;2023-08-06T03:52:05;4.27;;;2.70;;
15331;SDS011;7766;51.534;6.722;2023-08-06T03:53:06;3.90;;;2.67;;
15331;SDS011;7766;51.534;6.722;2023-08-06T03:54:07;4.30;;;2.80;;
15331;SDS011;7766;51.534;6.722;2023-08-06T03:55:08;3.23;;;2.70;;
15331;SDS011;7766;51.534;6.722;2023-08-06T03:56:09;3.90;;;2.80;;
15331;SDS011;7766;51.534;6.722;2023-08-06T03:57:10;5.30;;;3.03;;
15331;SDS011;7766;51.534;6.722;2023-08-06T03:58:11;2.70;;;2.50;;
15331;SDS011;7766;51.534;6.722;2023-08-06T03:59:12;4.50;;;3.37;;
15331;SDS011;7766;51.534;6.722;2023-08-06T04:00:13;3.70;;;2.80;;
15331;SDS011;7766;51.534;6.722;2023-08-06T04:01:14;4.13;;;2.83;;
15331;SDS011;7766;51.534;6.722;2023-08-06T04:02:15;3.17;;;2.67;;
15331;SDS011;7766;51.534;6.722;2023-08-06T04:03:16;3.93;;;2.97;;
15331;SDS011;7766;51.534;6.722;2023-08-06T04:04:17;3.00;;;2.70;;
15331;SDS011;7766;51.534;6.722;2023-08-06T04:05:18;4.00;;;2.60;;
15331;SDS011;7766;51.534;6.722;2023-08-06T04:06:19;4.50;;;2.70;;
15331;SDS011;7766;51.534;6.722;2023-08-06T04:07:20;3.00;;;2.50;;
15331;SDS011;7766;51.534;6.722;2023-08-06T04:08:21;6.77;;;2.40;;
15331;SDS011;7766;51.534;6.722;2023-08-06T04:09:22;4.33;;;2.90;;
15331;SDS011;7766;51.534;6.722;2023-08-06T04:10:23;4.00;;;2.50;;
15331;SDS011;7766;51.534;6.722;2023-08-06T04:11:24;3.60;;;2.97;;
15331;SDS011;7766;51.534;6.722;2023-08-06T04:12:25;4.23;;;3.20;;
15331;SDS011;7766;51.534;6.722;2023-08-06T04:13:27;4.77;;;2.80;;
15331;SDS011;7766;51.534;6.722;2023-08-06T04:14:28;5.70;;;2.97;;
15331;SDS011;7766;51.534;6.722;2023-08-06T04:15:29;4.63;;;2.90;;
15331;SDS011;7766;51.534;6.722;2023-08-06T04:16:30;4.53;;;2.67;;
15331;SDS011;7766;51.534;6.722;2023-08-06T04:17:31;8.67;;;2.73;;
15331;SDS011;7766;51.534;6.722;2023-08-06T04:18:32;5.00;;;2.90;;
15331;SDS011;7766;51.534;6.722;2023-08-06T04:19:33;5.73;;;2.93;;
15331;SDS011;7766;51.534;6.722;2023-08-06T04:20:34;5.47;;;2.80;;
15331;SDS011;7766;51.534;6.722;2023-08-06T04:21:41;3.93;;;2.70;;
15331;SDS011;7766;51.534;6.722;2023-08-06T04:22:42;3.87;;;2.70;;
15331;SDS011;7766;51.534;6.722;2023-08-06T04:23:43;7.97;;;3.10;;
15331;SDS011;7766;51.534;6.722;2023-08-06T04:24:45;3.53;;;2.70;;
15331;SDS011;7766;51.534;6.722;2023-08-06T04:25:46;3.90;;;2.80;;
15331;SDS011;7766;51.534;6.722;2023-08-06T04:26:47;3.37;;;3.00;;
15331;SDS011;7766;51.534;6.722;2023-08-06T04:27:48;3.37;;;2.57;;
15331;SDS011;7766;51.534;6.722;2023-08-06T04:28:49;3.53;;;3.10;;
15331;SDS011;7766;51.534;6.722;2023-08-06T04:29:50;4.00;;;2.80;;
15331;SDS011;7766;51.534;6.722;2023-08-06T04:30:51;3.00;;;2.70;;
15331;SDS011;7766;51.534;6.722;2023-08-06T04:31:53;6.67;;;2.83;;
15331;SDS011;7766;51.534;6.722;2023-08-06T04:32:56;3.73;;;2.90;;
15331;SDS011;7766;51.534;6.722;2023-08-06T04:33:58;3.73;;;2.40;;
15331;SDS011;7766;51.534;6.722;2023-08-06T04:34:59;3.43;;;2.60;;
15331;SDS011;7766;51.534;6.722;2023-08-06T04:36:00;2.97;;;2.63;;
15331;SDS011;7766;51.534;6.722;2023-08-06T04:37:01;2.60;;;2.40;;
15331;SDS011;7766;51.534;6.722;2023-08-06T04:38:02;4.57;;;2.37;;
15331;SDS011;7766;51.534;6.722;2023-08-06T04:39:03;4.13;;;2.70;;
15331;SDS011;7766;51.534;6.722;2023-08-06T04:40:04;5.10;;;2.97;;
15331;SDS011;7766;51.534;6.722;2023-08-06T04:41:06;6.10;;;3.27;;
15331;SDS011;7766;51.534;6.722;2023-08-06T04:42:07;5.17;;;2.70;;
15331;SDS011;7766;51.534;6.722;2023-08-06T04:43:08;4.90;;;2.93;;
15331;SDS011;7766;51.534;6.722;2023-08-06T04:44:09;3.30;;;2.57;;
15331;SDS011;7766;51.534;6.722;2023-08-06T04:45:10;5.87;;;3.03;;
15331;SDS011;7766;51.534;6.722;2023-08-06T04:46:11;2.77;;;2.47;;
15331;SDS011;7766;51.534;6.722;2023-08-06T04:47:11;4.83;;;2.87;;
15331;SDS011;7766;51.534;6.722;2023-08-06T04:48:13;5.27;;;2.87;;
15331;SDS011;7766;51.534;6.722;2023-08-06T04:49:14;2.93;;;2.70;;
15331;SDS011;7766;51.534;6.722;2023-08-06T04:50:15;5.77;;;2.77;;
15331;SDS011;7766;51.534;6.722;2023-08-06T04:51:16;4.10;;;2.70;;
15331;SDS011;7766;51.534;6.722;2023-08-06T04:52:17;4.43;;;2.43;;
15331;SDS011;7766;51.534;6.722;2023-08-06T04:53:18;4.20;;;2.97;;
15331;SDS011;7766;51.534;6.722;2023-08-06T04:54:19;5.17;;;2.90;;
15331;SDS011;7766;51.534;6.722;2023-08-06T04:55:20;4.53;;;2.77;;
15331;SDS011;7766;51.534;6.722;2023-08-06T04:56:21;4.30;;;2.77;;
15331;SDS011;7766;51.534;6.722;2023-08-06T04:57:22;5.30;;;3.03;;
15331;SDS011;7766;51.534;6.722;2023-08-06T04:58:23;3.87;;;2.63;;
15331;SDS011;7766;51.534;6.722;2023-08-06T04:59:24;4.20;;;2.87;;
15331;SDS011;7766;51.534;6.722;2023-08-06T05:00:25;4.30;;;3.00;;
15331;SDS011;7766;51.534;6.722;2023-08-06T05:01:26;4.30;;;2.73;;
15331;SDS011;7766;51.534;6.722;2023-08-06T05:02:28;4.43;;;3.03;;
15331;SDS011;7766;51.534;6.722;2023-08-06T05:03:29;4.50;;;2.93;;
15331;SDS011;7766;51.534;6.722;2023-08-06T05:04:30;3.67;;;2.37;;
15331;SDS011;7766;51.534;6.722;2023-08-06T05:05:31;5.53;;;2.97;;
15331;SDS011;7766;51.534;6.722;2023-08-06T05:06:32;4.87;;;2.40;;
15331;SDS011;7766;51.534;6.722;2023-08-06T05:07:33;4.27;;;2.63;;
15331;SDS011;7766;51.534;6.722;2023-08-06T05:08:34;4.10;;;2.90;;
15331;SDS011;7766;51.534;6.722;2023-08-06T05:09:35;4.80;;;2.93;;
15331;SDS011;7766;51.534;6.722;2023-08-06T05:10:36;3.87;;;2.87;;
15331;SDS011;7766;51.534;6.722;2023-08-06T05:11:37;6.00;;;2.80;;
15331;SDS011;7766;51.534;6.722;2023-08-06T05:12:38;5.63;;;3.40;;
15331;SDS011;7766;51.534;6.722;2023-08-06T05:13:39;5.17;;;2.43;;
15331;SDS011;7766;51.534;6.722;2023-08-06T05:14:40;3.27;;;2.97;;
15331;SDS011;7766;51.534;6.722;2023-08-06T05:15:41;6.43;;;2.90;;
15331;SDS011;7766;51.534;6.722;2023-08-06T05:16:45;6.60;;;2.80;;
15331;SDS011;7766;51.534;6.722;2023-08-06T05:17:46;5.87;;;2.60;;
15331;SDS011;7766;51.534;6.722;2023-08-06T05:18:47;3.60;;;3.03;;
15331;SDS011;7766;51.534;6.722;2023-08-06T05:19:48;3.33;;;2.57;;
15331;SDS011;7766;51.534;6.722;2023-08-06T05:20:49;4.93;;;2.90;;
15331;SDS011;7766;51.534;6.722;2023-08-06T05:21:50;6.10;;;3.20;;
15331;SDS011;7766;51.534;6.722;2023-08-06T05:22:51;4.63;;;2.93;;
15331;SDS011;7766;51.534;6.722;2023-08-06T05:23:52;7.43;;;2.57;;
15331;SDS011;7766;51.534;6.722;2023-08-06T05:24:53;4.07;;;2.67;;
15331;SDS011;7766;51.534;6.722;2023-08-06T05:25:54;3.93;;;2.50;;
15331;SDS011;7766;51.534;6.722;2023-08-06T05:26:55;5.07;;;2.70;;
15331;SDS011;7766;51.534;6.722;2023-08-06T05:27:56;4.10;;;2.83;;
15331;SDS011;7766;51.534;6.722;2023-08-06T05:28:57;6.17;;;3.00;;
15331;SDS011;7766;51.534;6.722;2023-08-06T05:29:58;5.80;;;3.07;;
15331;SDS011;7766;51.534;6.722;2023-08-06T05:31:02;7.27;;;3.30;;
15331;SDS011;7766;51.534;6.722;2023-08-06T05:32:07;6.03;;;3.00;;
15331;SDS011;7766;51.534;6.722;2023-08-06T05:33:08;3.47;;;2.73;;
15331;SDS011;7766;51.534;6.722;2023-08-06T05:34:09;5.40;;;2.80;;
15331;SDS011;7766;51.534;6.722;2023-08-06T05:35:10;4.30;;;3.10;;
15331;SDS011;7766;51.534;6.722;2023-08-06T05:36:11;3.50;;;2.57;;
15331;SDS011;7766;51.534;6.722;2023-08-06T05:37:11;5.37;;;3.20;;
15331;SDS011;7766;51.534;6.722;2023-08-06T05:38:12;6.30;;;2.90;;
15331;SDS011;7766;51.534;6.722;2023-08-06T05:39:13;5.53;;;2.90;;
15331;SDS011;7766;51.534;6.722;2023-08-06T05:40:14;5.27;;;2.97;;
15331;SDS011;7766;51.534;6.722;2023-08-06T05:41:15;5.57;;;2.77;;
15331;SDS011;7766;51.534;6.722;2023-08-06T05:42:16;6.07;;;2.83;;
15331;SDS011;7766;51.534;6.722;2023-08-06T05:43:17;5.00;;;2.70;;
15331;SDS011;7766;51.534;6.722;2023-08-06T05:44:18;3.53;;;2.70;;
15331;SDS011;7766;51.534;6.722;2023-08-06T05:45:19;5.93;;;2.63;;
15331;SDS011;7766;51.534;6.722;2023-08-06T05:46:20;6.43;;;2.80;;
15331;SDS011;7766;51.534;6.722;2023-08-06T05:47:21;2.90;;;2.70;;
15331;SDS011;7766;51.534;6.722;2023-08-06T05:48:22;6.37;;;2.93;;
15331;SDS011;7766;51.534;6.722;2023-08-06T05:49:24;4.23;;;2.17;;
15331;SDS011;7766;51.534;6.722;2023-08-06T05:50:25;4.50;;;2.73;;
15331;SDS011;7766;51.534;6.722;2023-08-06T05:51:26;4.83;;;2.77;;
15331;SDS011;7766;51.534;6.722;2023-08-06T05:52:28;4.63;;;2.87;;
15331;SDS011;7766;51.534;6.722;2023-08-06T05:53:29;5.97;;;2.53;;
15331;SDS011;7766;51.534;6.722;2023-08-06T05:54:30;9.20;;;3.10;;
15331;SDS011;7766;51.534;6.722;2023-08-06T05:55:31;4.50;;;2.60;;
15331;SDS011;7766;51.534;6.722;2023-08-06T05:56:32;4.30;;;2.60;;
15331;SDS011;7766;51.534;6.722;2023-08-06T05:57:33;6.43;;;3.00;;
15331;SDS011;7766;51.534;6.722;2023-08-06T05:58:34;11.97;;;2.93;;
15331;SDS011;7766;51.534;6.722;2023-08-06T05:59:35;6.10;;;2.40;;
15331;SDS011;7766;51.534;6.722;2023-08-06T06:00:36;3.83;;;3.03;;
15331;SDS011;7766;51.534;6.722;2023-08-06T06:01:37;5.57;;;2.70;;
15331;SDS011;7766;51.534;6.722;2023-08-06T06:02:38;4.33;;;2.23;;
15331;SDS011;7766;51.534;6.722;2023-08-06T06:03:39;4.97;;;2.47;;
15331;SDS011;7766;51.534;6.722;2023-08-06T06:04:40;4.90;;;2.50;;
15331;SDS011;7766;51.534;6.722;2023-08-06T06:05:41;5.07;;;2.73;;
15331;SDS011;7766;51.534;6.722;2023-08-06T06:06:42;6.90;;;2.73;;
15331;SDS011;7766;51.534;6.722;2023-08-06T06:07:44;4.83;;;2.53;;
15331;SDS011;7766;51.534;6.722;2023-08-06T06:08:45;4.97;;;2.30;;
15331;SDS011;7766;51.534;6.722;2023-08-06T06:09:46;3.03;;;2.30;;
15331;SDS011;7766;51.534;6.722;2023-08-06T06:10:47;5.83;;;2.23;;
15331;SDS011;7766;51.534;6.722;2023-08-06T06:11:48;2.70;;;2.10;;
15331;SDS011;7766;51.534;6.722;2023-08-06T06:12:50;3.03;;;2.10;;
15331;SDS011;7766;51.534;6.722;2023-08-06T06:13:50;3.13;;;2.23;;
15331;SDS011;7766;51.534;6.722;2023-08-06T06:14:52;4.03;;;2.37;;
15331;SDS011;7766;51.534;6.722;2023-08-06T06:15:56;4.70;;;2.10;;
15331;SDS011;7766;51.534;6.722;2023-08-06T06:16:57;4.43;;;2.10;;
15331;SDS011;7766;51.534;6.722;2023-08-06T06:17:59;3.53;;;2.20;;
15331;SDS011;7766;51.534;6.722;2023-08-06T06:19:00;4.43;;;2.43;;
15331;SDS011;7766;51.534;6.722;2023-08-06T06:20:01;4.57;;;2.47;;
15331;SDS011;7766;51.534;6.722;2023-08-06T06:21:04;7.27;;;2.73;;